createdAt,value
2019-03-21T00:04:27.969Z,31.37
2019-03-21T00:09:32.430Z,30.43
2019-03-21T00:14:49.078Z,29.87
2019-03-21T00:19:53.380Z,31.77
2019-03-21T00:24:57.842Z,32.77
2019-03-21T00:30:02.074Z,31.90
2019-03-21T00:35:07.091Z,34.27
2019-03-21T00:40:14.187Z,31.30
2019-03-21T00:45:18.413Z,36.87
2019-03-21T00:50:23.607Z,35.40
2019-03-21T00:55:28.277Z,35.97
2019-03-21T01:00:35.766Z,39.00
2019-03-21T01:05:40.234Z,34.90
2019-03-21T01:10:44.470Z,33.70
2019-03-21T01:15:48.685Z,36.60
2019-03-21T01:20:52.911Z,38.73
2019-03-21T01:25:57.791Z,40.40
2019-03-21T01:31:02.277Z,39.53
2019-03-21T01:36:06.627Z,38.40
2019-03-21T01:41:10.965Z,40.57
2019-03-21T01:46:16.074Z,39.50
2019-03-21T01:51:20.321Z,41.53
2019-03-21T01:56:24.683Z,42.73
2019-03-21T02:01:28.922Z,39.80
2019-03-21T02:06:33.483Z,46.07
2019-03-21T02:11:38.993Z,42.93
2019-03-21T02:16:43.229Z,41.10
2019-03-21T02:21:47.526Z,41.17
2019-03-21T02:26:51.737Z,42.33
2019-03-21T02:31:56.194Z,41.23
2019-03-21T02:37:00.413Z,46.00
2019-03-21T02:42:04.638Z,43.47
2019-03-21T02:47:08.851Z,40.43
2019-03-21T02:52:13.061Z,43.00
2019-03-21T02:57:17.278Z,39.73
2019-03-21T03:02:21.567Z,49.20
2019-03-21T03:07:25.774Z,44.67
2019-03-21T03:12:30.002Z,43.33
2019-03-21T03:17:34.213Z,46.27
2019-03-21T03:22:38.505Z,44.30
2019-03-21T03:27:42.797Z,46.90
2019-03-21T03:32:47.047Z,42.50
2019-03-21T03:37:51.276Z,42.90
2019-03-21T03:42:55.475Z,42.00
2019-03-21T03:47:59.695Z,43.03
2019-03-21T03:53:04.113Z,47.03
2019-03-21T03:58:10.814Z,39.10
2019-03-21T04:03:15.036Z,40.60
2019-03-21T04:08:19.348Z,41.17
2019-03-21T04:13:23.688Z,42.00
2019-03-21T04:18:27.914Z,44.90
2019-03-21T04:23:32.126Z,45.77
2019-03-21T04:28:36.339Z,42.10
2019-03-21T04:33:40.829Z,46.67
2019-03-21T04:38:45.067Z,44.17
2019-03-21T04:43:49.402Z,44.50
2019-03-21T04:48:53.683Z,45.07
2019-03-21T04:53:57.885Z,40.87
2019-03-21T04:59:02.179Z,43.57
2019-03-21T05:04:06.403Z,44.70
2019-03-21T05:09:14.152Z,45.97
2019-03-21T05:14:19.032Z,42.93
2019-03-21T05:19:23.246Z,42.73
2019-03-21T05:24:27.517Z,47.10
2019-03-21T05:29:32.146Z,43.77
2019-03-21T05:34:36.644Z,43.47
2019-03-21T05:39:40.907Z,46.63
2019-03-21T05:44:45.149Z,43.63
2019-03-21T05:49:49.629Z,48.27
2019-03-21T05:54:54.117Z,44.10
2019-03-21T06:00:15.450Z,44.77
2019-03-21T06:05:20.072Z,44.33
2019-03-21T06:10:24.488Z,47.30
2019-03-21T06:15:30.763Z,41.90
2019-03-21T06:20:57.453Z,45.90
2019-03-21T06:26:26.730Z,44.60
2019-03-21T06:31:30.938Z,42.43
2019-03-21T06:36:35.155Z,43.47
2019-03-21T06:41:39.738Z,46.73
2019-03-21T06:46:49.470Z,41.27
2019-03-21T06:51:51.248Z,41.80
2019-03-21T06:56:55.796Z,42.87
2019-03-21T07:02:00.218Z,40.53
2019-03-21T07:07:08.516Z,38.07
2019-03-21T07:12:10.606Z,40.97
2019-03-21T07:17:14.813Z,43.93
2019-03-21T07:22:19.087Z,38.47
2019-03-21T07:27:23.309Z,40.30
2019-03-21T07:32:33.287Z,37.60
2019-03-21T07:37:33.457Z,37.73
2019-03-21T07:42:37.679Z,39.30
2019-03-21T07:47:42.060Z,37.03
2019-03-21T07:52:46.330Z,41.67
2019-03-21T07:57:50.558Z,40.73
2019-03-21T08:02:54.833Z,43.40
2019-03-21T08:07:59.038Z,43.00
2019-03-21T08:13:03.237Z,41.13
2019-03-21T08:18:07.444Z,41.43
2019-03-21T08:23:11.658Z,41.53
2019-03-21T08:28:15.865Z,45.63
2019-03-21T08:33:20.067Z,42.13
2019-03-21T08:38:24.752Z,48.00
2019-03-21T08:43:28.951Z,47.97
2019-03-21T08:48:33.158Z,44.43
2019-03-21T08:53:37.502Z,38.63
2019-03-21T08:58:41.688Z,39.47
2019-03-21T09:03:45.873Z,35.83
2019-03-21T09:08:50.060Z,34.60
2019-03-21T09:13:54.258Z,35.43
2019-03-21T09:18:58.450Z,30.77
2019-03-21T09:24:02.685Z,35.67
2019-03-21T09:29:06.920Z,31.87
2019-03-21T09:34:11.209Z,28.80
2019-03-21T09:39:15.490Z,32.10
2019-03-21T09:44:27.061Z,33.70
2019-03-21T09:49:31.255Z,27.83
2019-03-21T09:54:35.451Z,36.20
2019-03-21T09:59:39.635Z,31.53
2019-03-21T10:04:43.825Z,27.97
2019-03-21T10:09:48.367Z,31.37
2019-03-21T10:14:52.663Z,29.97
2019-03-21T10:19:56.845Z,31.87
2019-03-21T10:25:01.041Z,27.77
2019-03-21T10:30:06.561Z,27.33
2019-03-21T10:35:10.829Z,27.90
2019-03-21T10:40:15.028Z,24.97
2019-03-21T10:45:19.291Z,28.03
2019-03-21T10:50:34.098Z,25.47
2019-03-21T10:55:38.885Z,25.47
2019-03-21T11:00:43.087Z,23.37
2019-03-21T11:05:47.356Z,26.00
2019-03-21T11:10:51.571Z,25.60
2019-03-21T11:15:55.770Z,27.67
2019-03-21T11:20:59.973Z,25.27
2019-03-21T11:26:04.245Z,26.60
2019-03-21T11:31:08.439Z,27.80
2019-03-21T11:36:12.615Z,30.40
2019-03-21T11:41:16.843Z,34.20
2019-03-21T11:46:21.039Z,32.30
2019-03-21T11:51:25.484Z,30.23
2019-03-21T11:56:29.688Z,28.27
2019-03-21T12:01:33.897Z,27.33
2019-03-21T12:06:38.135Z,27.30
2019-03-21T12:11:42.694Z,30.60
2019-03-21T12:16:46.966Z,33.03
2019-03-21T12:21:51.152Z,29.40
2019-03-21T12:26:55.343Z,26.97
2019-03-21T12:31:59.544Z,24.63
2019-03-21T12:37:03.723Z,25.27
2019-03-21T12:42:07.924Z,25.50
2019-03-21T12:47:12.132Z,27.53
2019-03-21T12:52:16.321Z,24.20
2019-03-21T12:57:20.589Z,27.27
2019-03-21T13:02:32.263Z,22.03
2019-03-21T13:07:34.103Z,22.67
2019-03-21T13:12:38.426Z,27.20
2019-03-21T13:17:42.637Z,25.47
2019-03-21T13:22:52.770Z,26.60
2019-03-21T13:27:52.896Z,24.37
2019-03-21T13:32:57.105Z,23.90
2019-03-21T13:38:01.380Z,24.07
2019-03-21T13:43:05.987Z,23.73
2019-03-21T13:48:10.178Z,25.33
2019-03-21T13:53:19.059Z,25.83
2019-03-21T13:58:21.076Z,24.27
2019-03-21T14:03:25.595Z,24.10
2019-03-21T14:08:30.704Z,24.73
2019-03-21T14:13:34.937Z,22.53
2019-03-21T14:18:39.133Z,20.23
2019-03-21T14:23:43.802Z,22.07
2019-03-21T14:28:48.149Z,24.33
2019-03-21T14:33:52.457Z,20.60
2019-03-21T14:38:56.672Z,21.30
2019-03-21T14:44:00.890Z,24.53
2019-03-21T14:49:05.185Z,23.13
2019-03-21T14:54:09.708Z,21.33
2019-03-21T14:59:13.905Z,20.63
2019-03-21T15:04:18.941Z,21.47
2019-03-21T15:09:23.142Z,22.03
2019-03-21T15:14:27.723Z,21.70
2019-03-21T15:19:33.773Z,19.80
2019-03-21T15:24:38.315Z,18.87
2019-03-21T15:29:42.534Z,22.03
2019-03-21T15:34:46.801Z,20.30
2019-03-21T15:39:51.060Z,22.23
2019-03-21T15:45:10.272Z,23.90
2019-03-21T15:50:01.196Z,25.50
2019-03-21T15:55:06.165Z,23.33
2019-03-21T16:00:12.979Z,23.80
2019-03-21T16:05:17.204Z,21.67
2019-03-21T16:10:22.046Z,21.83
2019-03-21T16:15:26.275Z,23.00
2019-03-21T16:20:30.558Z,21.53
2019-03-21T16:25:34.829Z,22.50
2019-03-21T16:30:39.129Z,21.50
2019-03-21T16:35:43.323Z,23.07
2019-03-21T16:40:47.589Z,23.50
2019-03-21T16:45:57.620Z,22.80
2019-03-21T16:51:03.043Z,24.40
2019-03-21T16:56:07.588Z,21.67
2019-03-21T17:01:11.805Z,22.47
2019-03-21T17:06:16.005Z,26.40
2019-03-21T17:11:20.239Z,24.53
2019-03-21T17:16:24.533Z,20.03
2019-03-21T17:21:29.858Z,23.23
2019-03-21T17:26:34.063Z,27.60
2019-03-21T17:31:39.346Z,25.00
2019-03-21T17:36:43.544Z,27.20
2019-03-21T17:41:47.770Z,25.30
2019-03-21T17:46:51.989Z,26.73
2019-03-21T17:51:56.263Z,23.63
2019-03-21T17:57:00.477Z,25.07
2019-03-21T18:02:04.837Z,25.70
2019-03-21T18:07:09.081Z,29.13
2019-03-21T18:12:13.390Z,26.60
2019-03-21T18:17:18.656Z,28.13
2019-03-21T18:22:22.864Z,29.10
2019-03-21T18:27:27.138Z,28.07
2019-03-21T18:32:31.360Z,30.10
2019-03-21T18:37:36.182Z,32.53
2019-03-21T18:42:40.539Z,27.93
2019-03-21T18:47:44.907Z,31.50
2019-03-21T18:52:49.221Z,30.47
2019-03-21T18:57:53.516Z,32.83
2019-03-21T19:03:00.472Z,30.43
2019-03-21T19:08:04.451Z,30.43
2019-03-21T19:13:08.665Z,29.40
2019-03-21T19:18:12.903Z,29.30
2019-03-21T19:23:17.782Z,29.93
2019-03-21T19:28:21.988Z,28.17
2019-03-21T19:33:26.652Z,30.67
2019-03-21T19:38:30.884Z,28.73
2019-03-21T19:43:35.429Z,27.30
2019-03-21T19:48:49.757Z,28.60
2019-03-21T19:53:45.850Z,28.83
2019-03-21T19:58:50.111Z,28.37
2019-03-21T20:03:55.128Z,29.80
2019-03-21T20:08:59.641Z,28.23
2019-03-21T20:14:04.325Z,29.47
2019-03-21T20:19:08.678Z,26.00
2019-03-21T20:24:13.550Z,32.17
2019-03-21T20:29:22.314Z,27.27
2019-03-21T20:34:27.015Z,30.80
2019-03-21T20:39:31.377Z,29.77
2019-03-21T20:44:36.150Z,27.87
2019-03-21T20:49:40.641Z,25.57
2019-03-21T20:54:44.989Z,26.97
2019-03-21T20:59:49.552Z,28.87
2019-03-21T21:04:55.194Z,32.87
2019-03-21T21:09:59.642Z,29.83
2019-03-21T21:15:05.316Z,29.30
2019-03-21T21:20:10.161Z,28.17
2019-03-21T21:25:15.697Z,29.50
2019-03-21T21:30:20.679Z,26.23
2019-03-21T21:35:24.929Z,26.63
2019-03-21T21:40:32.603Z,28.10
2019-03-21T21:45:37.004Z,26.90
2019-03-21T21:50:41.220Z,26.03
2019-03-21T21:55:45.419Z,26.37
2019-03-21T22:00:49.613Z,26.07
2019-03-21T22:05:53.814Z,28.57
2019-03-21T22:10:58.266Z,30.23
2019-03-21T22:16:02.457Z,28.23
2019-03-21T22:21:06.681Z,25.67
2019-03-21T22:26:11.176Z,25.90
2019-03-21T22:31:15.364Z,27.67
2019-03-21T22:36:19.563Z,28.77
2019-03-21T22:41:23.859Z,26.03
2019-03-21T22:46:28.065Z,25.77
2019-03-21T22:51:32.253Z,27.73
2019-03-21T22:56:41.093Z,27.97
2019-03-21T23:01:42.378Z,27.80
2019-03-21T23:06:46.932Z,30.90
2019-03-21T23:11:51.845Z,29.67
2019-03-21T23:16:56.048Z,28.07
2019-03-21T23:22:00.243Z,33.37
2019-03-21T23:27:04.504Z,43.70
2019-03-21T23:32:08.729Z,37.70
2019-03-21T23:37:12.942Z,34.73
2019-03-21T23:42:17.160Z,32.33
2019-03-21T23:47:21.384Z,35.30
2019-03-21T23:52:25.858Z,32.80
2019-03-21T23:57:30.078Z,36.63
